Terminal Aerodrome Forecast
Issued by NWS

Current Version | Previous Version | Text Only | Print | Product List | Glossary Off
Versions: 1 2 3 4 5 6 7 8 9 10 11 12 13 14 15 16 17 18 19 20 21 22 23 24 25

200
FTUS41 KPBZ 292322
TAFMGW
TAF
KMGW 292322Z 3000/3024 32005KT P6SM BKN025
     FM301000 VRB03KT 3SM BR SCT025
     FM301400 10005KT P6SM BKN140
     FM302100 13005KT 5SM -RA OVC035
     FM302300 13005KT 2SM -RA BR OVC020=

USA.gov is the U.S. government's official web portal to all federal, state and local government web resources and services.